Clarksburg, MD (20871)

4:42 AM EDT on April 26, 2015 (GMT -0400)
Park Ridge | | Change Station
CLOSE
Current Station
Personal Weather Station
Location: Clarksburg, MD
Elevation: 623 ft
Nearby Weather Stations

Elev 623 ft 39.25 °N, 77.25 °W | Updated 7 minutes ago

Overcast
Overcast
40.5 °F
Feels Like 38 °F
N
3.7
Wind Variable Wind from NW

Today
High -- | Low -- °F
--% Chance of Precip.
Yesterday
High -- | Low -- °F
Precip. -- in
6:17 AM 7:57 PM
First Quarter, 53% visible
Pressure 29.73 in
Visibility 8.0 miles
Clouds Few 400 ft
Windchill 38 °F
Dew Point 40 °F
Humidity 98%
Rainfall 0.00 in
Snow Depth Not available.
UV 0 out of 12
Pollen 9.00 out of 12
Air Quality Not available.
Flu Activity Regional
METAR KGAI 260835Z AUTO 31003KT 8SM FEW004 04/02 A2973 RMK AO1

More Conditions Fewer Conditions

Pressure 29.73 in
Visibility 8.0 miles
Clouds Few 400 ft
Windchill 38 °F
Dew Point 40 °F
Humidity 98%
Rainfall 0.00 in
Snow Depth Not available.
UV 0 out of 12
Pollen 9.00 out of 12
Air Quality Not available.
Flu Activity Regional
METAR KGAI 260835Z AUTO 31003KT 8SM FEW004 04/02 A2973 RMK AO1

More Conditions Fewer Conditions

The full scope of the disaster following a powerful 7.8-magnitude earthquake in Nepal may not come into view for days, but global charities are already sending emergency aid. Click to see how you can help.

10-Day Weather Forecast

Almanac

Astronomy

Apr. 26, 2015 Rise Set
Actual Time
Civil Twilight
Nautical Twilight
Astronomical Twilight
Moon
Length of Visible Light
Length of Day
Tomorrow will be .
, % of the Moon is Illuminated

Today's Extremes

State Highs State Lows

Community

WunderPhotos

Upload Photos

1,816,953 photos uploaded!

WunderBlogs® & News

Nearby

Air Quality

  Air Quality AQ Index Pollutant
Not available.

Snow Depth

Station Depth Elevation

Earthquake Activity

City Distance Mag. Time & Date
Minimum magnitude displayed is 2.5.

Coastal Water Temperatures

Place Temperature

Stations

Nearby Weather Stations

Station Location Temp. Windchill Dew Point Humidity Wind Precip. Elev Updated Type